Planada, California
Current Conditions -  °F | °C
As of 10:53 PM on Wednesday 26 Nov 2014 (Local Time) from KMCE Reporting Station
Haze Haze  
Wind Chill: 50°   Ceiling: Unl
Heat Index: 50°   Visibility: 4mi
Dew Point: 43°   Wind: 3mph
Humidity: 77%   Direction: 30°NNE
Pressure: 30.23"   Gusts: NA
Location:  37.29°N, 120.32°W
Report Text: KMCE 270653Z AUTO 03003KT 4SM HZ CLR 10/06 A3023 RMK AO2 SLP238 T01000061
Loading
Personal Weather Stations






























Interactive Weather Map New forecast layout! Learn more

10-Day Weather Forecast

Advertisements
Track Severe Weather on mobile